createdAt,value
2022-10-16T16:57:49.240Z,101423.72
2022-10-16T17:02:51.964Z,101426.63
2022-10-16T17:05:19.898Z,101421.38
2022-10-16T17:07:46.398Z,101425.59
2022-10-16T17:10:12.961Z,101429.25
2022-10-16T17:12:39.558Z,101430.69
2022-10-16T17:15:07.146Z,101438.97
2022-10-16T17:17:33.650Z,101436.44
2022-10-16T17:20:00.165Z,101437.28
2022-10-16T17:22:26.853Z,101444.38
2022-10-16T17:24:54.824Z,101439.97
2022-10-16T17:27:21.674Z,101431.53
2022-10-16T17:29:52.326Z,101438.69
2022-10-16T17:32:20.774Z,101435.25
2022-10-16T17:34:47.941Z,101435.75
2022-10-16T17:37:17.312Z,101443.84
2022-10-16T17:39:44.965Z,101432.19
2022-10-16T17:42:11.487Z,101431.94
2022-10-16T17:44:38.099Z,101442.53
2022-10-16T17:47:04.640Z,101447.91
2022-10-16T17:49:31.512Z,101437.84
2022-10-16T17:51:59.162Z,101445.56
2022-10-16T17:54:25.701Z,101444.78
2022-10-16T17:56:54.724Z,101432.38
2022-10-16T17:59:23.229Z,101436.78
2022-10-16T18:01:50.102Z,101444.03
2022-10-16T18:04:17.360Z,101441.69
2022-10-16T18:06:45.685Z,101446.22
2022-10-16T18:09:15.123Z,101436.59
2022-10-16T18:11:41.731Z,101439.13
2022-10-16T18:14:08.234Z,101431.25
2022-10-16T18:16:36.762Z,101423.72
2022-10-16T18:19:03.713Z,101422.97
2022-10-16T18:21:30.288Z,101425.34
2022-10-16T18:23:59.391Z,101423.88
2022-10-16T18:26:26.235Z,101425.88
2022-10-16T18:28:54.675Z,101431.97
2022-10-16T18:31:23.159Z,101429.13
2022-10-16T18:33:51.281Z,101429.97
2022-10-16T18:36:23.837Z,101428.88
2022-10-16T18:38:51.080Z,101432.09
2022-10-16T18:41:18.531Z,101444.00
2022-10-16T18:43:45.076Z,101450.41
2022-10-16T18:46:15.035Z,101454.63
2022-10-16T18:48:42.373Z,101457.41
2022-10-16T18:51:23.168Z,101457.56
2022-10-16T18:53:53.123Z,101462.88
2022-10-16T18:56:21.738Z,101473.44
2022-10-16T18:58:49.256Z,101483.94
2022-10-16T19:01:21.436Z,101496.09
2022-10-16T19:03:55.405Z,101513.59
2022-10-16T19:06:22.290Z,101537.16
2022-10-16T19:08:48.805Z,101542.47
2022-10-16T19:11:21.158Z,101540.69
2022-10-16T19:13:48.573Z,101536.41
2022-10-16T19:16:21.636Z,101525.22
2022-10-16T19:18:51.014Z,101489.38
2022-10-16T19:21:18.609Z,101502.81
2022-10-16T19:23:47.006Z,101512.59
2022-10-16T19:26:18.144Z,101512.69
2022-10-16T19:28:46.327Z,101523.16
2022-10-16T19:31:15.211Z,101528.47
2022-10-16T19:33:42.365Z,101522.47
2022-10-16T19:36:12.007Z,101523.47
2022-10-16T19:38:39.718Z,101524.31
2022-10-16T19:41:08.720Z,101528.72
2022-10-16T19:43:35.249Z,101536.56
2022-10-16T19:46:06.762Z,101531.41
2022-10-16T19:48:33.921Z,101533.25
2022-10-16T19:51:01.351Z,101529.56
2022-10-16T19:53:28.749Z,101523.78
2022-10-16T19:55:56.151Z,101520.44
2022-10-16T19:58:23.924Z,101523.25
2022-10-16T20:00:50.408Z,101523.25
2022-10-16T20:03:17.726Z,101520.72
2022-10-16T20:05:55.031Z,101518.19
2022-10-16T20:08:21.941Z,101518.19
2022-10-16T20:10:55.048Z,101510.31
2022-10-16T20:13:22.724Z,101509.47
2022-10-16T20:15:49.849Z,101512.69
2022-10-16T20:18:17.058Z,101513.16
2022-10-16T20:20:48.547Z,101521.19
2022-10-16T20:23:15.507Z,101518.56
2022-10-16T20:25:42.718Z,101516.94
2022-10-16T20:28:12.266Z,101520.47
2022-10-16T20:30:41.356Z,101511.69
2022-10-16T20:33:08.694Z,101518.63
2022-10-16T20:35:43.890Z,101516.84
2022-10-16T20:38:11.237Z,101517.63
2022-10-16T20:40:43.520Z,101522.03
2022-10-16T20:43:16.193Z,101516.63
2022-10-16T20:45:43.878Z,101519.31
2022-10-16T20:48:13.796Z,101516.78
2022-10-16T20:50:41.814Z,101515.69
2022-10-16T20:53:09.286Z,101514.00
2022-10-16T20:55:37.504Z,101514.94
2022-10-16T20:58:05.701Z,101508.09
2022-10-16T21:00:32.452Z,101502.84
2022-10-16T21:02:59.081Z,101491.50
2022-10-16T21:05:28.897Z,101496.91
2022-10-16T21:07:55.858Z,101499.53
2022-10-16T21:10:23.423Z,101505.69
2022-10-16T21:12:56.101Z,101497.97
2022-10-16T21:15:22.769Z,101500.69
2022-10-16T21:17:49.444Z,101513.00
2022-10-16T21:20:16.214Z,101514.84
2022-10-16T21:22:42.739Z,101510.59
2022-10-16T21:25:09.497Z,101505.53
2022-10-16T21:27:40.347Z,101509.09
2022-10-16T21:30:09.709Z,101516.13
2022-10-16T21:32:37.551Z,101502.28
2022-10-16T21:35:04.848Z,101508.53
2022-10-16T21:37:34.107Z,101497.22
2022-10-16T21:40:00.926Z,101503.38
2022-10-16T21:42:28.066Z,101499.75
2022-10-16T21:44:54.826Z,101486.06
2022-10-16T21:47:21.395Z,101486.22
2022-10-16T21:49:47.886Z,101487.06
2022-10-16T21:52:14.530Z,101484.34
2022-10-16T21:54:40.981Z,101484.44
2022-10-16T21:57:07.514Z,101487.06
2022-10-16T21:59:34.186Z,101480.91
2022-10-16T22:02:03.102Z,101476.97
2022-10-16T22:04:29.745Z,101479.50
2022-10-16T22:06:56.275Z,101481.91
2022-10-16T22:09:22.780Z,101479.19
2022-10-16T22:11:50.557Z,101472.16
2022-10-16T22:14:19.833Z,101474.50
2022-10-16T22:16:47.256Z,101479.66
2022-10-16T22:19:16.025Z,101475.22
2022-10-16T22:21:43.769Z,101474.22
2022-10-16T22:24:10.602Z,101475.97
2022-10-16T22:26:38.107Z,101474.97
2022-10-16T22:29:05.912Z,60685.94
2022-10-16T22:31:33.274Z,60685.94
2022-10-16T22:34:04.009Z,60685.94
2022-10-16T22:36:30.764Z,60685.94
2022-10-16T22:38:58.159Z,60685.94
2022-10-16T22:41:24.975Z,60685.94
2022-10-16T22:43:51.956Z,60685.94
2022-10-16T22:46:21.052Z,60685.94
2022-10-16T22:48:47.945Z,60685.94
2022-10-16T22:51:16.964Z,60685.94
2022-10-16T22:53:44.236Z,60685.94
2022-10-16T22:56:11.198Z,60685.94
2022-10-16T22:58:38.257Z,60685.94
2022-10-16T23:01:22.317Z,60685.94
2022-10-16T23:03:48.833Z,60685.94
2022-10-16T23:06:15.577Z,60685.94
2022-10-16T23:08:42.186Z,60685.94
2022-10-16T23:11:11.505Z,60685.94
2022-10-16T23:13:40.125Z,60685.94
2022-10-16T23:16:07.671Z,60685.94
2022-10-16T23:18:34.718Z,60685.94
2022-10-16T23:21:06.015Z,60685.94
2022-10-16T23:23:34.054Z,60685.94
2022-10-16T23:26:00.632Z,60685.94
2022-10-16T23:28:27.194Z,60685.94
2022-10-16T23:30:53.834Z,60685.94
2022-10-16T23:33:20.367Z,60685.94
2022-10-16T23:35:47.244Z,60685.94
2022-10-16T23:38:13.740Z,60685.94
2022-10-16T23:40:40.485Z,60685.94
2022-10-16T23:43:07.033Z,60685.94
2022-10-16T23:45:33.566Z,60685.94
2022-10-16T23:48:00.467Z,60685.94
2022-10-16T23:50:28.783Z,60685.94
2022-10-16T23:52:55.296Z,60685.94
2022-10-16T23:55:21.908Z,60685.94
2022-10-16T23:57:48.444Z,60685.94
